Toledo, Iowa
Current Conditions -  °F | °C
As of 5:53 PM on Saturday 20 Dec 2014 (Local Time) from KMIW Reporting Station
Haze Haze  
Wind Chill: 25°   Ceiling: 400
Heat Index: 33°   Visibility: 2.5mi
Dew Point: 32°   Wind: 10mph
Humidity: 96%   Direction: 130°SE
Pressure: 30.13"   Gusts: NA
Location:  42°N, 92.58°W
Report Text: KMIW 202353Z AUTO 13009KT 2 1/2SM BR OVC004 01/00 A3013 RMK AO2 SLP211 I6001 T00060000 10006 20000 50001
Loading
Personal Weather Stations






























Interactive Weather Map New forecast layout! Learn more

10-Day Weather Forecast

Advertisements
Track Severe Weather on mobile